createdAt,value
2019-03-25T00:00:08.464Z,102156.89
2019-03-25T00:02:37.682Z,102158.58
2019-03-25T00:05:07.606Z,102145.77
2019-03-25T00:07:36.852Z,102151.55
2019-03-25T00:10:07.218Z,102136.84
2019-03-25T00:12:36.398Z,102132.00
2019-03-25T00:15:06.630Z,102132.00
2019-03-25T00:17:35.876Z,102128.02
2019-03-25T00:20:06.697Z,102127.98
2019-03-25T00:22:35.878Z,102126.87
2019-03-25T00:25:06.216Z,102121.09
2019-03-25T00:27:35.424Z,102114.31
2019-03-25T00:30:06.081Z,102103.68
2019-03-25T00:32:35.314Z,102102.84
2019-03-25T00:35:06.888Z,102098.77
2019-03-25T00:37:36.086Z,102089.98
2019-03-25T00:40:06.516Z,102102.59
2019-03-25T00:42:35.734Z,102094.92
2019-03-25T00:45:07.041Z,102091.34
2019-03-25T00:47:36.245Z,102093.05
2019-03-25T00:50:07.893Z,102097.99
2019-03-25T00:52:37.076Z,102083.88
2019-03-25T00:55:06.884Z,102086.16
2019-03-25T00:57:36.084Z,102076.05
2019-03-25T01:00:07.853Z,102076.05
2019-03-25T01:02:37.068Z,102084.13
2019-03-25T01:05:08.041Z,102071.27
2019-03-25T01:07:37.229Z,102079.62
2019-03-25T01:10:08.467Z,102085.67
2019-03-25T01:12:37.657Z,102085.67
2019-03-25T01:15:07.915Z,102066.63
2019-03-25T01:17:37.089Z,102069.25
2019-03-25T01:20:07.137Z,102069.56
2019-03-25T01:22:36.270Z,102065.02
2019-03-25T01:25:06.921Z,102072.11
2019-03-25T01:27:36.127Z,102072.61
2019-03-25T01:30:09.846Z,102072.61
2019-03-25T01:32:39.027Z,102066.36
2019-03-25T01:35:08.291Z,102060.89
2019-03-25T01:37:37.509Z,102057.51
2019-03-25T01:40:08.508Z,102052.62
2019-03-25T01:42:37.670Z,102070.87
2019-03-25T01:45:09.999Z,102072.20
2019-03-25T01:47:39.174Z,102075.28
2019-03-25T01:50:08.460Z,102075.28
2019-03-25T01:52:37.642Z,102057.88
2019-03-25T01:55:13.521Z,102057.88
2019-03-25T01:57:38.144Z,102050.83
2019-03-25T02:00:08.761Z,102043.13
2019-03-25T02:02:37.945Z,102046.33
2019-03-25T02:05:07.468Z,102051.17
2019-03-25T02:07:36.657Z,102051.14
2019-03-25T02:10:09.899Z,102032.93
2019-03-25T02:12:39.166Z,102049.05
2019-03-25T02:15:09.010Z,102028.02
2019-03-25T02:17:38.183Z,102063.59
2019-03-25T02:20:07.434Z,102086.43
2019-03-25T02:22:37.032Z,102092.41
2019-03-25T02:25:06.372Z,102080.91
2019-03-25T02:27:35.523Z,102080.22
2019-03-25T02:30:08.272Z,102058.29
2019-03-25T02:32:37.621Z,102057.70
2019-03-25T02:35:07.531Z,102069.20
2019-03-25T02:37:36.729Z,102053.57
2019-03-25T02:40:07.193Z,102050.50
2019-03-25T02:42:36.321Z,102063.98
2019-03-25T02:45:07.280Z,102049.14
2019-03-25T02:47:36.449Z,102056.66
2019-03-25T02:50:06.368Z,102054.41
2019-03-25T02:52:35.550Z,102045.47
2019-03-25T02:55:07.376Z,102059.16
2019-03-25T02:57:36.565Z,102046.64
2019-03-25T03:00:08.572Z,102053.83
2019-03-25T03:02:37.754Z,102070.73
2019-03-25T03:05:08.306Z,102072.97
2019-03-25T03:07:37.576Z,102058.30
2019-03-25T03:10:08.276Z,102063.98
2019-03-25T03:12:37.500Z,102071.69
2019-03-25T03:15:07.530Z,102063.73
2019-03-25T03:17:36.742Z,102054.39
2019-03-25T03:20:07.474Z,102062.32
2019-03-25T03:22:36.649Z,102072.73
2019-03-25T03:25:05.930Z,102064.70
2019-03-25T03:27:35.108Z,102064.22
2019-03-25T03:30:06.377Z,102063.58
2019-03-25T03:32:35.571Z,102070.53
2019-03-25T03:35:06.695Z,102063.94
2019-03-25T03:37:35.875Z,102063.98
2019-03-25T03:40:08.135Z,102063.98
2019-03-25T03:42:37.337Z,102079.20
2019-03-25T03:45:07.249Z,102064.03
2019-03-25T03:47:36.403Z,102064.88
2019-03-25T03:50:08.812Z,102053.83
2019-03-25T03:52:38.547Z,102066.22
2019-03-25T03:55:07.970Z,102072.06
2019-03-25T03:57:37.396Z,102057.23
2019-03-25T04:00:08.284Z,102064.27
2019-03-25T04:02:37.465Z,102067.89
2019-03-25T04:05:06.633Z,102064.37
2019-03-25T04:07:35.814Z,102065.69
2019-03-25T04:10:06.263Z,102081.73
2019-03-25T04:12:35.435Z,102068.02
2019-03-25T04:15:06.167Z,102077.73
2019-03-25T04:17:35.347Z,102078.22
2019-03-25T04:20:06.779Z,102073.25
2019-03-25T04:22:35.967Z,102069.69
2019-03-25T04:25:06.392Z,102075.58
2019-03-25T04:27:35.587Z,102076.58
2019-03-25T04:30:06.013Z,102073.86
2019-03-25T04:32:35.184Z,102073.84
2019-03-25T04:35:04.926Z,102073.84
2019-03-25T04:37:34.107Z,102068.94
2019-03-25T04:40:05.025Z,102068.63
2019-03-25T04:42:34.216Z,102075.41
2019-03-25T04:45:03.482Z,102077.57
2019-03-25T04:47:32.690Z,102072.79
2019-03-25T04:50:01.856Z,102054.52
2019-03-25T04:52:31.085Z,102077.20
2019-03-25T04:55:00.436Z,102083.53
2019-03-25T04:57:29.575Z,102079.14
2019-03-25T04:59:58.751Z,102086.12
2019-03-25T05:02:27.934Z,102094.42
2019-03-25T05:04:57.127Z,102084.58
2019-03-25T05:07:26.299Z,102078.88
2019-03-25T05:09:55.505Z,102087.90
2019-03-25T05:12:24.691Z,102087.05
2019-03-25T05:14:55.426Z,102086.61
2019-03-25T05:17:24.625Z,102086.18
2019-03-25T05:19:53.823Z,102085.58
2019-03-25T05:22:22.985Z,102068.26
2019-03-25T05:24:53.013Z,102092.36
2019-03-25T05:27:22.199Z,102089.64
2019-03-25T05:29:51.377Z,102096.77
2019-03-25T05:32:20.554Z,102092.75
2019-03-25T05:34:49.735Z,102084.63
2019-03-25T05:37:18.934Z,102095.56
2019-03-25T05:39:48.114Z,102104.41
2019-03-25T05:42:17.289Z,102109.88
2019-03-25T05:44:46.471Z,102109.36
2019-03-25T05:47:15.684Z,102126.12
2019-03-25T05:49:44.859Z,102121.75
2019-03-25T05:52:14.039Z,102124.59
2019-03-25T05:54:43.257Z,102113.03
2019-03-25T05:57:12.431Z,102134.77
2019-03-25T05:59:41.621Z,102127.20
2019-03-25T06:02:10.811Z,102136.19
2019-03-25T06:04:39.988Z,102135.62
2019-03-25T06:07:09.205Z,102158.78
2019-03-25T06:09:38.412Z,102138.27
2019-03-25T06:12:07.592Z,102131.02
2019-03-25T06:14:36.779Z,102140.23
2019-03-25T06:17:06.062Z,102144.77
2019-03-25T06:19:35.262Z,102139.88
2019-03-25T06:22:04.557Z,102145.52
2019-03-25T06:24:33.735Z,102139.36
2019-03-25T06:27:13.661Z,102145.11
2019-03-25T06:29:33.815Z,102133.56
2019-03-25T06:32:03.016Z,102143.75
2019-03-25T06:34:32.208Z,102127.74
2019-03-25T06:37:01.417Z,102128.92
2019-03-25T06:39:30.633Z,102137.01
2019-03-25T06:41:59.815Z,102124.72
2019-03-25T06:44:29.008Z,102132.20
2019-03-25T06:46:58.201Z,102129.56
2019-03-25T06:49:27.391Z,102132.10
2019-03-25T06:51:56.661Z,102133.44
2019-03-25T06:54:25.848Z,102144.84
2019-03-25T06:56:55.019Z,102156.36
2019-03-25T06:59:24.231Z,102139.84
2019-03-25T07:01:53.394Z,102142.76
2019-03-25T07:04:22.624Z,102141.98
2019-03-25T07:06:51.789Z,102155.20
2019-03-25T07:09:22.036Z,102143.52
2019-03-25T07:11:51.211Z,102135.83
2019-03-25T07:14:20.737Z,102158.22
2019-03-25T07:16:49.914Z,102159.32
2019-03-25T07:19:19.173Z,102157.08
2019-03-25T07:21:48.336Z,102158.28
2019-03-25T07:24:17.532Z,102165.94
2019-03-25T07:26:46.711Z,102172.77
2019-03-25T07:29:15.987Z,102167.12
2019-03-25T07:31:45.287Z,102181.55
2019-03-25T07:34:14.485Z,102181.59
2019-03-25T07:36:43.730Z,102179.63
2019-03-25T07:39:30.908Z,102210.23
2019-03-25T07:42:00.099Z,102189.70
2019-03-25T07:44:29.278Z,102181.83
2019-03-25T07:46:58.492Z,102191.48
2019-03-25T07:49:27.709Z,102187.45
2019-03-25T07:51:56.890Z,102188.61
2019-03-25T07:54:26.099Z,102203.64
2019-03-25T07:56:55.299Z,102203.64
2019-03-25T07:59:24.510Z,102191.72
2019-03-25T08:01:53.747Z,102196.75
2019-03-25T08:04:22.999Z,102202.16
2019-03-25T08:06:52.201Z,102202.16
2019-03-25T08:09:21.366Z,102202.64
2019-03-25T08:11:50.606Z,102235.23
2019-03-25T08:14:19.755Z,102286.83
2019-03-25T08:16:48.961Z,102270.61
2019-03-25T08:19:18.159Z,102232.05
2019-03-25T08:21:47.333Z,102254.14
2019-03-25T08:24:16.530Z,102256.58
2019-03-25T08:26:45.723Z,102277.72
2019-03-25T08:29:14.909Z,102259.98
2019-03-25T08:31:44.129Z,102269.16
2019-03-25T08:34:13.333Z,102257.42
2019-03-25T08:36:42.515Z,102257.42
2019-03-25T08:39:11.765Z,102293.78
2019-03-25T08:41:40.989Z,102293.78
2019-03-25T08:44:10.200Z,102267.84
2019-03-25T08:46:39.547Z,102300.47
2019-03-25T08:49:08.679Z,102298.91
2019-03-25T08:51:37.869Z,102325.80
2019-03-25T08:54:07.064Z,102327.28
2019-03-25T08:56:36.297Z,102314.81
2019-03-25T08:59:05.549Z,102300.05
2019-03-25T09:01:34.743Z,102324.80
2019-03-25T09:04:04.029Z,102357.74
2019-03-25T09:06:33.195Z,102325.34
2019-03-25T09:09:02.365Z,102345.05
2019-03-25T09:11:31.553Z,102332.63
2019-03-25T09:14:00.747Z,102322.64
2019-03-25T09:16:30.033Z,102353.17
2019-03-25T09:18:59.243Z,102333.72
2019-03-25T09:21:28.513Z,102350.80
2019-03-25T09:23:58.542Z,102353.09
2019-03-25T09:26:27.721Z,102379.89
2019-03-25T09:28:57.295Z,102371.05
2019-03-25T09:31:36.301Z,102386.33
2019-03-25T09:33:57.357Z,102374.78
2019-03-25T09:36:26.623Z,102372.13
2019-03-25T09:38:55.793Z,102395.68
2019-03-25T09:41:25.017Z,102369.11
2019-03-25T09:43:54.257Z,102377.03
2019-03-25T09:46:23.527Z,102388.25
2019-03-25T09:48:52.873Z,102421.90
2019-03-25T09:51:22.072Z,102421.90
2019-03-25T09:53:51.437Z,102412.44
2019-03-25T09:56:20.694Z,102397.30
2019-03-25T09:58:49.875Z,102405.44
2019-03-25T10:01:19.125Z,102405.44
2019-03-25T10:03:48.292Z,102409.69
2019-03-25T10:06:17.567Z,102411.34
2019-03-25T10:08:46.810Z,102432.89
2019-03-25T10:11:15.998Z,102443.24
2019-03-25T10:13:45.183Z,102427.23
2019-03-25T10:16:14.529Z,102425.60
2019-03-25T10:18:43.749Z,102449.24
2019-03-25T10:21:12.934Z,102434.05
2019-03-25T10:23:42.275Z,102443.78
2019-03-25T10:26:11.435Z,102410.69
2019-03-25T10:28:48.652Z,102421.82
2019-03-25T10:31:11.528Z,102396.24
2019-03-25T10:33:40.730Z,102445.38
2019-03-25T10:36:09.934Z,102439.19
2019-03-25T10:38:39.095Z,102426.05
2019-03-25T10:41:08.606Z,102432.27
2019-03-25T10:43:38.122Z,102463.36
2019-03-25T10:46:07.417Z,102454.70
2019-03-25T10:48:36.583Z,102458.80
2019-03-25T10:51:05.928Z,102447.44
2019-03-25T10:53:35.126Z,102466.50
2019-03-25T10:56:04.408Z,102468.17
2019-03-25T10:58:33.680Z,102453.73
2019-03-25T11:01:02.914Z,102450.00
2019-03-25T11:03:32.089Z,102462.19
2019-03-25T11:06:01.265Z,102456.82
2019-03-25T11:08:30.468Z,102445.87
2019-03-25T11:10:59.636Z,102461.58
2019-03-25T11:13:28.884Z,102460.53
2019-03-25T11:15:58.102Z,102448.47
2019-03-25T11:18:27.353Z,102449.03
2019-03-25T11:20:56.538Z,102461.52
2019-03-25T11:23:25.805Z,102473.24
2019-03-25T11:25:54.987Z,102460.57
2019-03-25T11:28:24.227Z,102479.86
2019-03-25T11:30:55.346Z,102480.29
2019-03-25T11:33:24.698Z,102482.88
2019-03-25T11:35:54.041Z,102462.83
2019-03-25T11:38:23.288Z,102480.39
2019-03-25T11:40:53.692Z,102472.27
2019-03-25T11:43:22.950Z,102474.84
2019-03-25T11:45:52.212Z,102460.45
2019-03-25T11:48:21.458Z,102481.89
2019-03-25T11:50:50.719Z,102474.00
2019-03-25T11:53:19.927Z,102561.41
2019-03-25T11:55:49.177Z,102496.77
2019-03-25T11:58:18.449Z,102480.11
2019-03-25T12:00:47.667Z,102511.27
2019-03-25T12:03:16.923Z,102484.27
2019-03-25T12:05:46.123Z,102473.34
2019-03-25T12:08:15.293Z,102479.02
2019-03-25T12:10:44.573Z,102507.95
2019-03-25T12:13:14.117Z,102481.49
2019-03-25T12:15:43.363Z,102467.16
2019-03-25T12:18:12.611Z,102486.66
2019-03-25T12:20:41.788Z,102486.66
2019-03-25T12:23:10.969Z,102498.68
2019-03-25T12:25:40.205Z,102499.95
2019-03-25T12:28:09.439Z,102506.62
2019-03-25T12:30:38.705Z,102492.80
2019-03-25T12:33:08.268Z,102482.43
2019-03-25T12:35:37.635Z,102490.36
2019-03-25T12:38:06.972Z,102501.83
2019-03-25T12:40:36.207Z,102494.56
2019-03-25T12:43:05.479Z,102488.28
2019-03-25T12:45:34.659Z,102503.25
2019-03-25T12:48:03.859Z,102484.09
2019-03-25T12:50:33.030Z,102489.16
2019-03-25T12:53:02.213Z,102481.23
2019-03-25T12:55:31.408Z,102497.95
2019-03-25T12:58:00.604Z,102481.67
2019-03-25T13:00:36.908Z,102501.43
2019-03-25T13:03:06.428Z,102504.36
2019-03-25T13:05:36.126Z,102504.03
2019-03-25T13:08:05.380Z,102494.69
2019-03-25T13:10:34.573Z,102499.31
2019-03-25T13:13:03.786Z,102490.44
2019-03-25T13:15:32.965Z,102499.77
2019-03-25T13:18:02.150Z,102518.77
2019-03-25T13:20:31.349Z,102503.74
2019-03-25T13:23:00.529Z,102499.31
2019-03-25T13:25:29.718Z,102518.05
2019-03-25T13:27:58.907Z,102522.50
2019-03-25T13:30:28.143Z,102499.55
2019-03-25T13:32:57.327Z,102498.19
2019-03-25T13:35:26.501Z,102536.08
2019-03-25T13:37:55.696Z,102491.08
2019-03-25T13:40:24.880Z,102516.81
2019-03-25T13:42:54.088Z,102523.86
2019-03-25T13:45:23.259Z,102512.46
2019-03-25T13:47:52.439Z,102508.13
2019-03-25T13:50:21.621Z,102532.80
2019-03-25T13:52:50.820Z,102522.60
2019-03-25T13:55:20.024Z,102520.89
2019-03-25T13:57:49.321Z,102532.34
2019-03-25T14:00:21.575Z,102532.31
2019-03-25T14:02:50.747Z,102544.55
2019-03-25T14:05:19.952Z,102530.17
2019-03-25T14:07:49.155Z,102539.69
2019-03-25T14:10:18.415Z,102487.81
2019-03-25T14:12:47.602Z,102487.81
2019-03-25T14:15:16.794Z,102585.36
2019-03-25T14:17:45.988Z,102568.23
2019-03-25T14:20:15.323Z,102535.08
2019-03-25T14:22:44.509Z,102540.88
2019-03-25T14:25:13.738Z,102549.36
2019-03-25T14:27:42.933Z,102539.39
2019-03-25T14:30:14.810Z,102562.74
2019-03-25T14:32:43.191Z,102523.22
2019-03-25T14:35:12.372Z,102543.83
2019-03-25T14:37:41.572Z,102574.25
2019-03-25T14:40:10.852Z,102546.86
2019-03-25T14:42:40.035Z,102546.86
2019-03-25T14:45:09.558Z,102566.95
2019-03-25T14:47:38.758Z,102583.39
2019-03-25T14:50:09.271Z,102572.49
2019-03-25T14:52:38.470Z,102569.36
2019-03-25T14:55:08.001Z,102558.61
2019-03-25T14:57:37.191Z,102573.81
2019-03-25T15:00:11.040Z,102594.68
2019-03-25T15:02:40.236Z,102580.52
2019-03-25T15:05:09.777Z,102631.30
2019-03-25T15:07:39.075Z,102585.83
2019-03-25T15:10:08.609Z,102591.01
2019-03-25T15:12:37.869Z,102606.83
2019-03-25T15:15:08.742Z,102596.09
2019-03-25T15:17:38.004Z,102641.41
2019-03-25T15:20:10.035Z,102564.68
2019-03-25T15:22:39.412Z,102608.81
2019-03-25T15:25:13.085Z,102626.42
2019-03-25T15:27:42.270Z,102626.94
2019-03-25T15:30:12.271Z,102621.61
2019-03-25T15:32:41.571Z,102633.84
2019-03-25T15:35:29.203Z,102641.00
2019-03-25T15:37:58.411Z,102608.92
2019-03-25T15:40:27.793Z,102630.16
2019-03-25T15:42:57.046Z,102633.79
2019-03-25T15:45:26.240Z,102587.20
2019-03-25T15:47:55.432Z,102618.77
2019-03-25T15:50:25.020Z,102624.53
2019-03-25T15:52:54.202Z,102637.97
2019-03-25T15:55:23.374Z,102645.51
2019-03-25T15:57:52.570Z,102634.22
2019-03-25T16:00:22.692Z,102640.86
2019-03-25T16:02:52.023Z,102644.35
2019-03-25T16:05:21.222Z,102656.58
2019-03-25T16:07:50.583Z,102652.16
2019-03-25T16:10:21.594Z,102643.09
2019-03-25T16:12:50.768Z,102640.42
2019-03-25T16:15:36.584Z,102665.91
2019-03-25T16:18:07.700Z,102658.86
2019-03-25T16:20:36.945Z,102662.58
2019-03-25T16:23:06.131Z,102665.62
2019-03-25T16:25:35.311Z,102659.84
2019-03-25T16:28:04.572Z,102670.61
2019-03-25T16:30:33.794Z,102651.34
2019-03-25T16:33:02.999Z,102684.94
2019-03-25T16:35:32.177Z,102676.45
2019-03-25T16:38:01.368Z,102669.30
2019-03-25T16:40:30.557Z,102688.49
2019-03-25T16:42:59.749Z,102663.11
2019-03-25T16:45:28.926Z,102675.96
2019-03-25T16:47:58.099Z,102674.73
2019-03-25T16:50:27.282Z,102719.25
2019-03-25T16:52:56.546Z,102710.44
2019-03-25T16:55:25.731Z,102716.64
2019-03-25T16:57:54.949Z,102696.11
2019-03-25T17:00:27.484Z,102709.83
2019-03-25T17:02:55.068Z,102721.52
2019-03-25T17:05:24.265Z,102739.91
2019-03-25T17:07:53.491Z,102727.00
2019-03-25T17:10:22.689Z,102733.18
2019-03-25T17:12:51.888Z,102737.20
2019-03-25T17:15:21.073Z,102727.84
2019-03-25T17:17:50.272Z,102736.34
2019-03-25T17:20:19.455Z,102743.41
2019-03-25T17:22:48.654Z,102731.37
2019-03-25T17:25:17.836Z,102740.33
2019-03-25T17:27:47.030Z,102747.80
2019-03-25T17:30:17.456Z,102741.22
2019-03-25T17:32:46.634Z,102742.27
2019-03-25T17:35:15.818Z,102740.50
2019-03-25T17:37:45.003Z,102755.59
2019-03-25T17:40:14.425Z,102747.64
2019-03-25T17:42:43.600Z,102751.64
2019-03-25T17:45:13.944Z,102757.77
2019-03-25T17:47:43.128Z,102754.30
2019-03-25T17:50:13.425Z,102751.14
2019-03-25T17:52:42.633Z,102776.48
2019-03-25T17:55:12.147Z,102751.67
2019-03-25T17:57:41.323Z,102756.55
2019-03-25T18:00:12.513Z,102770.83
2019-03-25T18:02:41.692Z,102767.68
2019-03-25T18:05:11.334Z,102779.77
2019-03-25T18:07:40.560Z,102787.36
2019-03-25T18:10:10.179Z,102794.84
2019-03-25T18:12:39.443Z,102786.05
2019-03-25T18:15:12.108Z,102790.61
2019-03-25T18:17:41.531Z,102791.01
2019-03-25T18:20:18.629Z,102803.13
2019-03-25T18:22:41.934Z,102809.34
2019-03-25T18:25:11.201Z,102815.56
2019-03-25T18:27:41.441Z,102824.04
2019-03-25T18:30:10.775Z,102823.20
2019-03-25T18:32:39.947Z,102814.77
2019-03-25T18:35:10.645Z,102829.41
2019-03-25T18:37:39.831Z,102826.83
2019-03-25T18:40:09.079Z,102820.05
2019-03-25T18:42:38.269Z,102840.64
2019-03-25T18:45:07.581Z,102838.91
2019-03-25T18:47:36.761Z,102852.26
2019-03-25T18:50:07.207Z,102829.97
2019-03-25T18:52:36.410Z,102829.13
2019-03-25T18:55:07.232Z,102844.75
2019-03-25T18:57:36.445Z,102846.14
2019-03-25T19:00:07.924Z,102836.34
2019-03-25T19:02:37.464Z,102834.53
2019-03-25T19:05:08.231Z,102837.13
2019-03-25T19:07:37.394Z,102851.42
2019-03-25T19:10:09.630Z,102850.17
2019-03-25T19:12:38.833Z,102858.24
2019-03-25T19:15:08.071Z,102861.37
2019-03-25T19:17:37.261Z,102868.06
2019-03-25T19:20:07.201Z,102860.51
2019-03-25T19:22:36.414Z,102876.53
2019-03-25T19:25:08.096Z,102871.66
2019-03-25T19:27:37.286Z,102876.53
2019-03-25T19:30:10.145Z,102881.45
2019-03-25T19:32:39.236Z,102875.62
2019-03-25T19:35:09.807Z,102895.23
2019-03-25T19:37:38.993Z,102903.69
2019-03-25T19:40:09.108Z,102900.15
2019-03-25T19:42:38.300Z,102893.42
2019-03-25T19:45:08.347Z,102905.02
2019-03-25T19:47:37.527Z,102906.30
2019-03-25T19:50:07.347Z,102897.41
2019-03-25T19:52:36.534Z,102901.43
2019-03-25T19:55:06.292Z,102906.73
2019-03-25T19:57:35.448Z,102900.91
2019-03-25T20:00:07.976Z,102899.58
2019-03-25T20:02:37.215Z,102903.58
2019-03-25T20:05:07.998Z,102904.44
2019-03-25T20:07:37.742Z,102903.98
2019-03-25T20:10:12.784Z,102924.09
2019-03-25T20:12:41.957Z,102918.34
2019-03-25T20:15:11.344Z,102913.80
2019-03-25T20:17:40.490Z,102925.89
2019-03-25T20:20:09.800Z,102920.09
2019-03-25T20:22:39.707Z,102917.41
2019-03-25T20:25:09.041Z,102929.82
2019-03-25T20:27:38.288Z,102943.64
2019-03-25T20:30:10.447Z,102934.81
2019-03-25T20:32:39.715Z,102947.71
2019-03-25T20:35:09.170Z,102938.78
2019-03-25T20:37:38.345Z,102964.13
2019-03-25T20:40:10.370Z,102960.18
2019-03-25T20:42:39.594Z,102952.59
2019-03-25T20:45:09.091Z,102965.52
2019-03-25T20:47:38.318Z,102975.28
2019-03-25T20:50:07.769Z,102982.42
2019-03-25T20:52:37.015Z,102974.88
2019-03-25T20:55:07.678Z,102991.36
2019-03-25T20:57:36.872Z,102985.55
2019-03-25T21:00:10.350Z,102995.31
2019-03-25T21:02:44.972Z,102985.52
2019-03-25T21:05:10.596Z,102992.23
2019-03-25T21:07:39.827Z,102995.36
2019-03-25T21:10:09.948Z,102981.06
2019-03-25T21:12:39.192Z,102996.67
2019-03-25T21:15:08.839Z,102991.75
2019-03-25T21:17:38.019Z,102994.90
2019-03-25T21:20:08.590Z,102999.75
2019-03-25T21:22:37.781Z,103001.12
2019-03-25T21:25:07.458Z,103015.80
2019-03-25T21:27:36.702Z,103004.67
2019-03-25T21:30:07.829Z,103007.73
2019-03-25T21:32:37.008Z,103009.07
2019-03-25T21:35:07.504Z,103012.67
2019-03-25T21:37:36.790Z,103020.22
2019-03-25T21:40:07.843Z,103015.34
2019-03-25T21:42:37.041Z,103025.58
2019-03-25T21:45:08.314Z,103028.69
2019-03-25T21:47:37.500Z,103028.69
2019-03-25T21:50:07.092Z,103014.46
2019-03-25T21:52:36.365Z,103031.78
2019-03-25T21:55:06.718Z,103023.34
2019-03-25T21:57:35.904Z,103019.75
2019-03-25T22:00:07.093Z,103021.95
2019-03-25T22:02:36.240Z,103022.48
2019-03-25T22:05:07.347Z,103023.37
2019-03-25T22:07:36.546Z,103028.28
2019-03-25T22:10:06.852Z,103033.58
2019-03-25T22:12:36.083Z,103036.70
2019-03-25T22:15:10.214Z,103030.89
2019-03-25T22:17:39.622Z,103037.11
2019-03-25T22:20:09.437Z,103046.92
2019-03-25T22:22:38.617Z,103047.34
2019-03-25T22:25:09.155Z,103027.77
2019-03-25T22:27:38.334Z,103040.72
2019-03-25T22:30:08.263Z,103048.73
2019-03-25T22:32:37.436Z,103046.05
2019-03-25T22:35:07.349Z,103050.09
2019-03-25T22:37:36.536Z,103062.48
2019-03-25T22:40:07.560Z,103053.14
2019-03-25T22:42:36.755Z,103063.86
2019-03-25T22:45:06.481Z,103063.81
2019-03-25T22:47:36.400Z,103057.59
2019-03-25T22:50:10.030Z,103064.28
2019-03-25T22:52:39.193Z,103067.41
2019-03-25T22:55:08.392Z,103073.19
2019-03-25T22:57:37.589Z,103072.34
2019-03-25T23:00:09.297Z,103066.08
2019-03-25T23:02:38.547Z,103070.96
2019-03-25T23:05:07.889Z,103070.95
2019-03-25T23:07:37.119Z,103069.20
2019-03-25T23:10:06.695Z,103078.98
2019-03-25T23:12:35.857Z,103063.88
2019-03-25T23:15:05.937Z,103074.10
2019-03-25T23:17:35.182Z,103064.76
2019-03-25T23:20:05.673Z,103073.69
2019-03-25T23:22:34.843Z,103075.48
2019-03-25T23:25:04.854Z,103098.17
2019-03-25T23:27:34.034Z,103088.83
2019-03-25T23:30:03.224Z,103084.83
2019-03-25T23:32:32.417Z,103087.49
2019-03-25T23:35:01.626Z,103091.98
2019-03-25T23:37:30.860Z,103097.33
2019-03-25T23:40:00.040Z,103093.35
2019-03-25T23:42:29.293Z,103096.88
2019-03-25T23:44:58.502Z,103104.45
2019-03-25T23:47:27.682Z,103100.93
2019-03-25T23:49:56.840Z,103100.91
2019-03-25T23:52:26.028Z,103099.11
2019-03-25T23:54:55.200Z,103096.90
2019-03-25T23:57:24.375Z,103103.11
2019-03-25T23:59:53.569Z,103097.33
